createdAt,value
2017-12-26T00:04:08.683Z,84.80
2017-12-26T00:06:36.416Z,84.50
2017-12-26T00:09:03.943Z,83.30
2017-12-26T00:11:31.647Z,82.40
2017-12-26T00:13:59.284Z,82.00
2017-12-26T00:18:58.690Z,82.50
2017-12-26T00:21:26.326Z,83.70
2017-12-26T00:23:53.963Z,84.30
2017-12-26T00:26:21.677Z,86.00
2017-12-26T00:28:49.315Z,86.10
2017-12-26T00:31:16.942Z,85.40
2017-12-26T00:33:44.630Z,85.80
2017-12-26T00:36:12.259Z,85.70
2017-12-26T00:38:39.900Z,85.30
2017-12-26T00:41:07.615Z,86.20
2017-12-26T00:43:35.265Z,86.10
2017-12-26T00:46:02.896Z,85.90
2017-12-26T00:48:30.575Z,84.80
2017-12-26T00:50:58.202Z,84.90
2017-12-26T00:53:25.827Z,84.30
2017-12-26T00:55:53.538Z,83.60
2017-12-26T00:58:23.020Z,83.90
2017-12-26T01:00:50.644Z,83.20
2017-12-26T01:03:19.065Z,83.20
2017-12-26T01:05:46.695Z,82.80
2017-12-26T01:08:14.327Z,83.80
2017-12-26T01:10:42.031Z,83.70
2017-12-26T01:13:09.659Z,83.80
2017-12-26T01:15:37.287Z,83.30
2017-12-26T01:18:04.980Z,82.90
2017-12-26T01:20:32.614Z,83.20
2017-12-26T01:25:49.982Z,84.30
2017-12-26T01:28:17.662Z,84.50
2017-12-26T01:30:45.287Z,83.80
2017-12-26T01:33:12.926Z,82.60
2017-12-26T01:35:40.630Z,83.20
2017-12-26T01:38:08.262Z,84.40
2017-12-26T01:40:35.889Z,84.40
2017-12-26T01:43:03.588Z,83.20
2017-12-26T01:45:31.223Z,83.10
2017-12-26T01:48:03.943Z,83.70
2017-12-26T01:50:31.655Z,83.60
2017-12-26T01:52:59.285Z,85.20
2017-12-26T01:55:26.919Z,85.50
2017-12-26T01:57:55.535Z,85.40
2017-12-26T02:00:23.173Z,85.70
2017-12-26T02:02:50.800Z,86.10
2017-12-26T02:05:18.509Z,84.50
2017-12-26T02:07:49.820Z,84.10
2017-12-26T02:10:17.464Z,84.50
2017-12-26T02:12:49.497Z,85.00
2017-12-26T02:15:17.124Z,85.70
2017-12-26T02:17:46.312Z,86.60
2017-12-26T02:20:14.023Z,87.30
2017-12-26T02:22:41.665Z,87.70
2017-12-26T02:27:41.058Z,87.40
2017-12-26T02:30:08.697Z,89.00
2017-12-26T02:32:36.333Z,88.50
2017-12-26T02:35:07.446Z,87.60
2017-12-26T02:37:35.076Z,87.40
2017-12-26T02:40:02.707Z,87.80
2017-12-26T02:42:30.393Z,86.70
2017-12-26T02:44:58.027Z,86.20
2017-12-26T02:47:25.662Z,87.00
2017-12-26T02:49:53.364Z,87.00
2017-12-26T02:55:00.145Z,87.40
2017-12-26T02:57:29.442Z,87.40
2017-12-26T02:59:57.067Z,88.40
2017-12-26T03:02:24.784Z,88.80
2017-12-26T03:04:52.419Z,89.40
2017-12-26T03:07:20.051Z,88.70
2017-12-26T03:09:47.744Z,88.40
2017-12-26T03:12:15.373Z,87.80
2017-12-26T03:14:43.002Z,88.80
2017-12-26T03:17:13.724Z,88.00
2017-12-26T03:19:42.166Z,88.80
2017-12-26T03:22:09.793Z,88.20
2017-12-26T03:24:37.511Z,88.60
2017-12-26T03:27:08.422Z,88.80
2017-12-26T03:29:36.040Z,89.20
2017-12-26T03:32:03.736Z,90.30
2017-12-26T03:34:31.353Z,89.90
2017-12-26T03:37:02.347Z,87.90
2017-12-26T03:39:30.053Z,89.10
2017-12-26T03:41:57.676Z,89.00
2017-12-26T03:44:25.315Z,89.30
2017-12-26T03:46:55.832Z,88.50
2017-12-26T03:49:23.464Z,88.70
2017-12-26T03:51:51.108Z,88.10
2017-12-26T03:56:57.888Z,88.60
2017-12-26T03:59:25.597Z,87.20
2017-12-26T04:01:54.134Z,87.40
2017-12-26T04:04:21.767Z,87.90
2017-12-26T04:06:50.296Z,88.30
2017-12-26T04:09:17.923Z,87.20
2017-12-26T04:11:48.774Z,87.00
2017-12-26T04:14:16.464Z,87.10
2017-12-26T04:16:44.092Z,87.20
2017-12-26T04:19:11.728Z,87.40
2017-12-26T04:21:39.423Z,84.80
2017-12-26T04:24:07.056Z,86.70
2017-12-26T04:26:38.703Z,87.10
2017-12-26T04:29:06.380Z,84.90
2017-12-26T04:31:37.874Z,86.40
2017-12-26T04:34:05.498Z,82.50
2017-12-26T04:36:33.960Z,82.40
2017-12-26T04:39:01.638Z,82.40
2017-12-26T04:41:29.270Z,83.70
2017-12-26T04:43:56.954Z,83.40
2017-12-26T04:46:24.580Z,80.60
2017-12-26T04:48:52.218Z,82.50
2017-12-26T04:51:20.948Z,84.60
2017-12-26T04:53:48.610Z,81.20
2017-12-26T04:56:16.203Z,82.80
2017-12-26T04:58:43.923Z,83.90
2017-12-26T05:01:11.604Z,83.40
2017-12-26T05:03:39.190Z,84.00
2017-12-26T05:06:06.863Z,83.00
2017-12-26T05:08:34.486Z,84.40
2017-12-26T05:11:02.121Z,82.10
2017-12-26T05:13:29.815Z,81.80
2017-12-26T05:15:57.447Z,78.80
2017-12-26T05:18:25.088Z,79.90
2017-12-26T05:25:59.586Z,80.40
2017-12-26T05:31:10.251Z,81.80
2017-12-26T05:33:37.838Z,78.80
2017-12-26T05:36:05.448Z,78.30
2017-12-26T05:38:33.161Z,77.90
2017-12-26T05:41:00.790Z,78.00
2017-12-26T05:43:28.411Z,79.10
2017-12-26T05:45:56.099Z,80.40
2017-12-26T05:48:23.737Z,77.80
2017-12-26T05:53:22.346Z,77.90
2017-12-26T05:58:18.555Z,77.90
2017-12-26T06:00:46.237Z,80.10
2017-12-26T06:03:13.855Z,79.30
2017-12-26T06:05:41.481Z,75.60
2017-12-26T06:08:09.197Z,74.00
2017-12-26T06:10:36.809Z,76.00
2017-12-26T06:13:04.437Z,71.10
2017-12-26T06:18:03.229Z,76.40
2017-12-26T06:20:30.860Z,76.50
2017-12-26T06:22:58.568Z,74.80
2017-12-26T06:27:53.822Z,78.10
2017-12-26T06:30:22.868Z,77.30
2017-12-26T06:32:50.666Z,79.30
2017-12-26T06:35:19.492Z,78.40
2017-12-26T06:37:47.171Z,77.90
2017-12-26T06:40:15.078Z,80.00
2017-12-26T06:42:43.661Z,79.80
2017-12-26T06:45:11.356Z,79.20
2017-12-26T06:47:38.989Z,77.70
2017-12-26T06:50:12.420Z,78.10
2017-12-26T06:52:42.297Z,77.90
2017-12-26T07:00:14.770Z,77.50
2017-12-26T07:02:42.450Z,76.70
2017-12-26T07:05:10.084Z,72.20
2017-12-26T07:07:37.710Z,73.50
2017-12-26T07:10:05.414Z,72.40
2017-12-26T07:15:02.807Z,76.70
2017-12-26T07:17:30.495Z,78.20
2017-12-26T07:19:58.435Z,77.90
2017-12-26T07:22:26.059Z,78.30
2017-12-26T07:24:53.756Z,78.90
2017-12-26T07:27:23.149Z,75.80
2017-12-26T07:29:50.795Z,76.30
2017-12-26T07:32:18.481Z,73.60
2017-12-26T07:34:46.106Z,75.10
2017-12-26T07:37:14.112Z,76.70
2017-12-26T07:39:41.824Z,77.40
2017-12-26T07:42:09.702Z,77.30
2017-12-26T07:44:37.324Z,75.40
2017-12-26T07:47:05.026Z,74.00
2017-12-26T07:49:32.647Z,71.80
2017-12-26T07:52:01.224Z,71.90
2017-12-26T07:54:28.925Z,73.60
2017-12-26T07:56:58.905Z,76.30
2017-12-26T07:59:26.533Z,76.90
2017-12-26T08:01:55.039Z,74.20
2017-12-26T08:04:22.657Z,73.30
2017-12-26T08:09:19.332Z,72.00
2017-12-26T08:14:27.745Z,77.00
2017-12-26T08:16:58.385Z,75.90
2017-12-26T08:19:26.013Z,78.00
2017-12-26T08:21:55.852Z,79.10
2017-12-26T08:24:23.470Z,78.30
2017-12-26T08:26:51.100Z,76.60
2017-12-26T08:29:18.783Z,75.60
2017-12-26T08:31:46.411Z,77.80
2017-12-26T08:34:14.041Z,78.70
2017-12-26T08:36:41.729Z,77.70
2017-12-26T08:39:09.698Z,76.80
2017-12-26T08:41:37.318Z,72.50
2017-12-26T08:44:05.020Z,70.00
2017-12-26T08:46:32.637Z,72.30
2017-12-26T08:49:01.610Z,71.50
2017-12-26T08:51:29.286Z,73.80
2017-12-26T08:53:56.919Z,72.90
2017-12-26T08:56:24.546Z,74.50
2017-12-26T08:58:53.045Z,74.10
2017-12-26T09:01:20.671Z,70.30
2017-12-26T09:03:48.846Z,69.60
2017-12-26T09:06:16.536Z,67.90
2017-12-26T09:08:44.156Z,68.10
2017-12-26T09:13:40.172Z,68.30
2017-12-26T09:16:07.845Z,68.90
2017-12-26T09:18:35.422Z,68.60
2017-12-26T09:21:03.116Z,66.40
2017-12-26T09:23:30.782Z,64.10
2017-12-26T09:25:59.178Z,63.90
2017-12-26T09:28:26.860Z,61.70
2017-12-26T09:30:54.487Z,62.00
2017-12-26T09:33:24.998Z,63.40
2017-12-26T09:35:52.702Z,58.80
2017-12-26T09:41:06.340Z,56.50
2017-12-26T09:43:34.989Z,56.60
2017-12-26T09:46:02.607Z,55.80
2017-12-26T09:48:30.287Z,60.40
2017-12-26T09:50:57.896Z,59.10
2017-12-26T09:53:25.526Z,57.40
2017-12-26T09:55:53.984Z,62.00
2017-12-26T09:58:21.605Z,62.20
2017-12-26T10:00:49.267Z,59.80
2017-12-26T10:03:16.895Z,58.30
2017-12-26T10:05:44.530Z,59.60
2017-12-26T10:10:40.674Z,56.00
2017-12-26T10:13:09.132Z,56.60
2017-12-26T10:15:36.755Z,54.20
2017-12-26T10:18:04.450Z,52.90
2017-12-26T10:20:32.092Z,55.50
2017-12-26T10:22:59.707Z,54.00
2017-12-26T10:25:27.381Z,53.30
2017-12-26T10:27:55.006Z,51.00
2017-12-26T10:32:50.315Z,51.20
2017-12-26T10:37:58.251Z,57.60
2017-12-26T10:40:25.878Z,58.70
2017-12-26T10:42:53.500Z,54.90
2017-12-26T10:45:21.199Z,56.20
2017-12-26T10:47:50.669Z,56.10
2017-12-26T10:50:18.285Z,55.70
2017-12-26T10:52:45.993Z,54.20
2017-12-26T10:55:14.548Z,52.80
2017-12-26T10:57:45.883Z,53.40
2017-12-26T11:00:15.482Z,53.30
2017-12-26T11:02:43.111Z,51.80
2017-12-26T11:05:11.334Z,56.10
2017-12-26T11:07:39.837Z,56.20
2017-12-26T11:10:07.474Z,53.10
2017-12-26T11:12:35.161Z,54.80
2017-12-26T11:15:09.220Z,54.40
2017-12-26T11:20:05.386Z,54.30
2017-12-26T11:22:33.030Z,56.30
2017-12-26T11:25:03.609Z,53.10
2017-12-26T11:27:34.332Z,54.70
2017-12-26T11:30:02.963Z,54.00
2017-12-26T11:32:32.694Z,55.90
2017-12-26T11:35:00.318Z,56.10
2017-12-26T11:37:27.942Z,54.20
2017-12-26T11:39:55.628Z,54.90
2017-12-26T11:42:24.180Z,53.40
2017-12-26T11:44:51.801Z,51.90
2017-12-26T11:47:22.824Z,52.90
2017-12-26T11:49:50.445Z,52.00
2017-12-26T11:52:18.065Z,52.40
2017-12-26T11:54:45.738Z,51.80
2017-12-26T11:57:15.107Z,52.00
2017-12-26T12:02:27.175Z,49.40
2017-12-26T12:04:54.805Z,51.40
2017-12-26T12:07:22.414Z,49.70
2017-12-26T12:09:50.114Z,47.80
2017-12-26T12:14:45.354Z,51.70
2017-12-26T12:17:13.028Z,53.00
2017-12-26T12:19:40.650Z,52.60
2017-12-26T12:22:08.266Z,53.50
2017-12-26T12:24:35.943Z,51.00
2017-12-26T12:27:03.568Z,51.30
2017-12-26T12:29:32.023Z,50.70
2017-12-26T12:31:59.691Z,50.70
2017-12-26T12:34:27.307Z,49.30
2017-12-26T12:36:54.934Z,49.20
2017-12-26T12:39:22.638Z,47.50
2017-12-26T12:41:50.251Z,46.10
2017-12-26T12:44:17.871Z,44.80
2017-12-26T12:46:45.552Z,44.50
2017-12-26T12:49:13.187Z,43.30
2017-12-26T12:51:40.788Z,45.70
2017-12-26T12:54:08.467Z,43.70
2017-12-26T12:56:36.092Z,43.40
2017-12-26T12:59:03.715Z,44.80
2017-12-26T13:01:31.412Z,47.70
2017-12-26T13:03:59.027Z,46.40
2017-12-26T13:06:26.648Z,44.60
2017-12-26T13:08:55.128Z,44.80
2017-12-26T13:11:22.756Z,46.20
2017-12-26T13:13:50.364Z,45.50
2017-12-26T13:16:18.061Z,46.30
2017-12-26T13:18:45.688Z,42.70
2017-12-26T13:21:13.307Z,43.10
2017-12-26T13:23:41.011Z,44.70
2017-12-26T13:26:08.629Z,43.10
2017-12-26T13:31:15.429Z,43.20
2017-12-26T13:33:43.041Z,43.30
2017-12-26T13:36:10.652Z,43.00
2017-12-26T13:38:38.343Z,43.20
2017-12-26T13:41:05.957Z,43.50
2017-12-26T13:43:33.576Z,41.60
2017-12-26T13:46:01.250Z,40.70
2017-12-26T13:48:28.874Z,41.80
2017-12-26T13:53:32.287Z,42.50
2017-12-26T13:56:00.847Z,43.20
2017-12-26T13:58:28.472Z,44.30
2017-12-26T14:00:56.169Z,43.60
2017-12-26T14:03:24.655Z,44.00
2017-12-26T14:05:52.287Z,42.40
2017-12-26T14:08:19.962Z,43.40
2017-12-26T14:10:47.584Z,43.80
2017-12-26T14:13:15.197Z,42.60
2017-12-26T14:15:42.925Z,43.80
2017-12-26T14:18:11.512Z,44.00
2017-12-26T14:20:39.133Z,45.00
2017-12-26T14:23:06.800Z,47.30
2017-12-26T14:25:34.427Z,47.70
2017-12-26T14:28:02.038Z,49.40
2017-12-26T14:32:57.900Z,51.20
2017-12-26T14:35:25.525Z,51.00
2017-12-26T14:37:53.223Z,53.00
2017-12-26T14:40:20.846Z,53.30
2017-12-26T14:45:16.905Z,53.40
2017-12-26T14:47:46.207Z,52.70
2017-12-26T14:50:13.832Z,54.80
2017-12-26T14:52:41.528Z,54.70
2017-12-26T14:55:10.088Z,55.20
2017-12-26T14:57:38.454Z,57.00
2017-12-26T15:00:06.136Z,56.50
2017-12-26T15:02:33.767Z,58.30
2017-12-26T15:07:43.155Z,57.90
2017-12-26T15:10:10.766Z,58.40
2017-12-26T15:12:38.390Z,57.90
2017-12-26T15:15:06.067Z,55.90
2017-12-26T15:17:33.689Z,56.60
2017-12-26T15:20:01.315Z,56.80
2017-12-26T15:22:29.051Z,57.60
2017-12-26T15:24:56.892Z,58.00
2017-12-26T15:27:24.525Z,59.00
2017-12-26T15:29:52.214Z,59.10
2017-12-26T15:32:19.838Z,59.10
2017-12-26T15:34:47.456Z,58.10
2017-12-26T15:37:15.127Z,59.30
2017-12-26T15:42:11.198Z,60.10
2017-12-26T15:44:38.885Z,60.30
2017-12-26T15:47:07.204Z,61.60
2017-12-26T15:49:34.826Z,61.20
2017-12-26T15:52:02.532Z,60.20
2017-12-26T15:54:30.152Z,59.80
2017-12-26T15:56:58.581Z,60.20
2017-12-26T15:59:26.276Z,58.40
2017-12-26T16:01:53.893Z,51.30
2017-12-26T16:04:21.515Z,48.30
2017-12-26T16:06:49.194Z,52.50
2017-12-26T16:09:16.853Z,49.80
2017-12-26T16:11:45.221Z,46.00
2017-12-26T16:14:12.891Z,46.50
2017-12-26T16:16:40.923Z,46.90
2017-12-26T16:19:08.564Z,49.00
2017-12-26T16:21:36.262Z,47.00
2017-12-26T16:24:04.907Z,45.90
2017-12-26T16:31:39.788Z,48.80
2017-12-26T16:34:07.408Z,49.30
2017-12-26T16:36:35.354Z,52.70
2017-12-26T16:39:02.991Z,53.70
2017-12-26T16:41:30.615Z,57.00
2017-12-26T16:43:58.738Z,57.80
2017-12-26T16:46:26.371Z,57.80
2017-12-26T16:48:53.985Z,58.40
2017-12-26T16:51:21.687Z,58.60
2017-12-26T16:53:49.309Z,58.60
2017-12-26T16:56:17.159Z,57.60
2017-12-26T16:58:44.668Z,57.90
2017-12-26T17:01:12.292Z,58.30
2017-12-26T17:03:39.904Z,58.00
2017-12-26T17:06:07.662Z,56.90
2017-12-26T17:08:35.230Z,56.70
2017-12-26T17:11:02.847Z,58.40
2017-12-26T17:13:30.534Z,59.70
2017-12-26T17:15:58.140Z,60.30
2017-12-26T17:18:25.760Z,61.00
2017-12-26T17:20:53.468Z,61.80
2017-12-26T17:23:21.087Z,61.20
2017-12-26T17:25:48.707Z,60.80
2017-12-26T17:28:16.406Z,60.10
2017-12-26T17:30:44.029Z,58.70
2017-12-26T17:33:11.648Z,59.00
2017-12-26T17:35:39.659Z,58.10
2017-12-26T17:38:07.235Z,57.30
2017-12-26T17:40:34.856Z,57.50
2017-12-26T17:43:02.814Z,60.50
2017-12-26T17:45:30.435Z,60.40
2017-12-26T17:47:58.050Z,59.00
2017-12-26T17:50:26.631Z,60.10
2017-12-26T17:55:36.258Z,60.60
2017-12-26T17:58:03.882Z,61.10
2017-12-26T18:00:31.524Z,62.10
2017-12-26T18:02:59.218Z,61.70
2017-12-26T18:05:26.844Z,61.00
2017-12-26T18:07:54.846Z,59.20
2017-12-26T18:10:22.520Z,60.10
2017-12-26T18:12:50.145Z,61.00
2017-12-26T18:15:17.763Z,62.20
2017-12-26T18:17:45.468Z,62.30
2017-12-26T18:22:40.730Z,60.90
2017-12-26T18:25:08.417Z,60.30
2017-12-26T18:27:36.866Z,60.10
2017-12-26T18:30:04.488Z,59.50
2017-12-26T18:32:32.165Z,58.20
2017-12-26T18:34:59.796Z,58.20
2017-12-26T18:37:27.420Z,59.90
2017-12-26T18:39:56.028Z,60.40
2017-12-26T18:42:23.653Z,60.20
2017-12-26T18:44:51.298Z,61.10
2017-12-26T18:47:23.919Z,60.80
2017-12-26T18:49:52.477Z,61.40
2017-12-26T18:52:20.109Z,61.20
2017-12-26T18:54:49.584Z,61.70
2017-12-26T18:57:17.207Z,61.60
2017-12-26T18:59:44.828Z,62.00
2017-12-26T19:02:12.505Z,62.30
2017-12-26T19:07:22.947Z,62.30
2017-12-26T19:09:50.564Z,64.90
2017-12-26T19:12:18.187Z,64.50
2017-12-26T19:14:46.711Z,64.00
2017-12-26T19:17:14.345Z,64.80
2017-12-26T19:19:41.963Z,64.00
2017-12-26T19:24:38.219Z,61.30
2017-12-26T19:27:06.924Z,62.50
2017-12-26T19:29:34.627Z,64.00
2017-12-26T19:32:02.258Z,64.50
2017-12-26T19:34:29.864Z,65.30
2017-12-26T19:36:57.555Z,66.50
2017-12-26T19:39:25.175Z,68.10
2017-12-26T19:41:52.799Z,68.40
2017-12-26T19:44:20.496Z,68.50
2017-12-26T19:46:48.131Z,68.20
2017-12-26T19:49:15.763Z,69.10
2017-12-26T19:51:43.466Z,67.70
2017-12-26T19:54:11.086Z,67.90
2017-12-26T19:59:13.859Z,68.50
2017-12-26T20:04:09.131Z,70.40
2017-12-26T20:06:36.804Z,70.70
2017-12-26T20:09:04.433Z,70.20
2017-12-26T20:11:32.107Z,71.60
2017-12-26T20:13:59.811Z,71.70
2017-12-26T20:16:27.692Z,71.10
2017-12-26T20:18:55.325Z,70.50
2017-12-26T20:21:23.012Z,70.70
2017-12-26T20:23:50.655Z,70.40
2017-12-26T20:26:18.276Z,72.00
2017-12-26T20:28:51.663Z,73.90
2017-12-26T20:36:26.065Z,74.10
2017-12-26T20:38:53.700Z,72.70
2017-12-26T20:41:21.411Z,73.10
2017-12-26T20:43:49.054Z,73.60
2017-12-26T20:46:16.685Z,71.30
2017-12-26T20:48:44.387Z,70.80
2017-12-26T20:51:12.009Z,71.60
2017-12-26T20:53:40.790Z,72.40
2017-12-26T20:56:09.329Z,73.50
2017-12-26T20:58:36.954Z,74.40
2017-12-26T21:01:05.533Z,74.90
2017-12-26T21:03:33.223Z,76.20
2017-12-26T21:06:00.852Z,77.80
2017-12-26T21:08:29.475Z,77.90
2017-12-26T21:10:57.163Z,78.60
2017-12-26T21:13:24.789Z,78.50
2017-12-26T21:15:53.301Z,80.40
2017-12-26T21:18:22.294Z,79.80
2017-12-26T21:20:49.932Z,79.60
2017-12-26T21:23:17.554Z,80.00
2017-12-26T21:25:46.179Z,80.20
2017-12-26T21:28:16.002Z,81.70
2017-12-26T21:30:47.673Z,80.80
2017-12-26T21:33:15.307Z,81.60
2017-12-26T21:35:42.937Z,83.40
2017-12-26T21:38:10.624Z,82.40
2017-12-26T21:40:39.115Z,81.50
2017-12-26T21:43:06.741Z,81.50
2017-12-26T21:45:40.428Z,80.30
2017-12-26T21:48:08.058Z,80.30
2017-12-26T21:50:37.251Z,80.30
2017-12-26T21:53:05.875Z,80.70
2017-12-26T21:55:33.503Z,80.20
2017-12-26T21:58:01.142Z,80.90
2017-12-26T22:03:07.944Z,82.20
2017-12-26T22:05:35.626Z,81.80
2017-12-26T22:08:03.251Z,81.10
2017-12-26T22:10:30.884Z,81.20
2017-12-26T22:12:58.570Z,80.20
2017-12-26T22:15:26.199Z,80.20
2017-12-26T22:17:53.827Z,80.50
2017-12-26T22:20:21.502Z,80.60
2017-12-26T22:25:16.754Z,80.30
2017-12-26T22:27:44.459Z,79.70
2017-12-26T22:30:12.098Z,80.40
2017-12-26T22:32:39.736Z,81.60
2017-12-26T22:35:07.431Z,82.70
2017-12-26T22:37:35.045Z,82.60
2017-12-26T22:40:02.677Z,83.60
2017-12-26T22:42:30.378Z,83.20
2017-12-26T22:44:57.999Z,83.00
2017-12-26T22:47:27.755Z,82.40
2017-12-26T22:49:55.451Z,82.50
2017-12-26T22:52:23.082Z,83.00
2017-12-26T22:54:50.719Z,82.90
2017-12-26T22:57:18.403Z,82.80
2017-12-26T22:59:46.840Z,83.70
2017-12-26T23:02:14.461Z,83.50
2017-12-26T23:04:42.157Z,83.10
2017-12-26T23:09:37.403Z,83.70
2017-12-26T23:12:05.091Z,83.50
2017-12-26T23:14:38.260Z,82.70
2017-12-26T23:19:53.007Z,82.60
2017-12-26T23:24:54.788Z,80.80
2017-12-26T23:27:28.127Z,81.10
2017-12-26T23:30:02.000Z,81.80
2017-12-26T23:32:35.367Z,83.40
2017-12-26T23:35:08.587Z,84.10
2017-12-26T23:37:44.886Z,84.00
2017-12-26T23:40:18.255Z,83.30
2017-12-26T23:42:54.852Z,83.90
2017-12-26T23:45:28.203Z,82.80
2017-12-26T23:48:02.311Z,83.40
2017-12-26T23:50:35.504Z,84.30
2017-12-26T23:53:09.747Z,84.00
2017-12-26T23:55:43.063Z,84.10
2017-12-26T23:58:16.495Z,83.40
